Portada
METAR-TAF:

METAR-TAF

Aeroports :

Stinson Municipal Airport

San Antonio, Texas, Estats Units d'Amèrica

latitud: 29-20-20N, longitud: 098-28-18W, altitud: 175 m

Observació

L'informe es va fer fa 48 minuts, a les 01:53 UTC
Vent 3 kt del Nord
Temperatura 7°C
Humitat 87%
Pressió 1027 hPa
Visibilitat: 16.1 km
Cel clar

METAR: KSSF 150153Z 36003KT 10SM CLR 07/05 A3034 RMK AO2 SLP280 T00670050

Hora: 20:41 (02:41 UTC)

Pronòstic

L'informe es va fer fa 3 hores i 15 minuts, a les 23:26 UTC
Pronòstic vàlid del 15 a les 00 UTC al 15 a les 24 UTC
Vent 10 kt del Nord
Visibilitat: 10 km
Cel cobert a una alçada de 5000 ft
A partir de les 15 a les 0300 UTC
Vent 5 kt del Nord
Visibilitat: 10 km
Escasses núvols a una alçada de 25000 ft
A partir de les 15 a les 1600 UTC
Vent 7 kt del Nord
Visibilitat: 10 km
Escasses núvols a una alçada de 2500 ft

TAF: KSSF 142326Z 1500/1524 36010KT P6SM OVC050 FM150300 01005KT P6SM FEW250 FM151600 01007KT P6SM FEW025

Observacions i pronòstics meteorològics de més de 4000 aeroports (METAR i TAF).

Les estacions disponibles són els punts grocs i vermells al mapa.

Posi el ratolí al punt desitjat per veure el nom de l'estació.

Feu clic per veure les observacions i els pronòstics meteorològics.

Per canviar el mapa: feu clic els botons verds amb una creu de color negre per apropar; al botó verd amb un guió per allunyar la imatge; o en les fletxes verdes per a mapes adjacents.


METAR-TAF: